Terminal Aerodrome Forecast
Issued by NWS Cleveland, OH

Home | Current Version | Previous Version | Text Only | Print | Product List | Glossary Off
Versions: 1 2 3 4 5 6 7 8 9 10 11 12 13 14 15 16 17 18 19 20 21 22 23 24 25 26 27

164
FTUS41 KCLE 071615 AAB
TAFCLE
TAF AMD
KCLE 071615Z 0716/0818 24012G18KT P6SM SCT025 BKN150
     FM072100 24012G18KT P6SM SCT035 OVC100
     FM080300 24010KT P6SM OVC025
     FM081400 25015G25KT P6SM OVC025=

USA.gov is the U.S. government's official web portal to all federal, state and local government web resources and services.